Terminal Aerodrome Forecast
Issued by NWS

Current Version | Previous Version | Graphics & Text | Print | Product List | Glossary On
Versions: 1 2 3 4 5 6 7 8 9 10 11 12 13 14 15 16 17 18 19 20
076
FTUS41 KPBZ 102341
TAFMGW
TAF
KMGW 102341Z 1100/1124 23010KT P6SM -SHSN OVC025
     FM110900 27012KT P6SM VCSH OVC025
     FM111800 29012G20KT P6SM OVC040=

USA.gov is the U.S. government's official web portal to all federal, state and local government web resources and services.